PWSweather.com
Personal Weather Stations
Station Observations
ME1989
Sicily, Barcellona Pozzo Di GottoIT

SicilyBarcellona Pozzo Di GottoIT

Lat: 38.1487398, Lon: 15.2113962

Elevation: 131

Station Type: Peet Bros

Latest ConditionsUpdated 4:30:07 AM GMT+01:01 Friday, Jul 25, 2014
Currently Today's Max Today's Min Today's Average
Temperature 70.1°F21.2°C 71.9°F22.2°C 69.7°F20.9°C 70.7°F21.5°C
Dew Point 61.4°F16.3°C 64.5°F18.1°C 61.0°F16.1°C 62.6°F17.0°C
Winds Calm Calm 4.0 mph SSE6.4 kmh SSE - 1.7 mph 2.7 kmh
Wind Gusts -- 5.1 mph8.2 kmh - -
Humidity 74% 78% 74% 75%
Pressure 29.89 in1012.2 mb 29.90 in1012.5 mb 29.88 in1011.9 mb -
Hour Temp Dew Point Humidity Winds Wind Gusts Pressure Precip Precip Rate Daily Precip Total
04:30 AM 70.1°F21.2°C 61.4°F16.3°C 74% Calm Calm -- 29.89 in1012.2 mb 0.00 in0.0 mm 0.00 in/hr0.0 mm/hr 0.00 in0.0 mm
04:20 AM 69.7°F20.9°C 61.0°F16.1°C 74% 2.2 mph SSE3.5 kmh SSE 5.1 mph8.2 kmh 29.89 in1012.2 mb 0.00 in0.0 mm 0.00 in/hr0.0 mm/hr 0.00 in0.0 mm
04:10 AM 69.8°F21.0°C 61.6°F16.4°C 75% 2.4 mph S3.9 kmh S 3.5 mph5.6 kmh 29.89 in1012.2 mb 0.00 in0.0 mm 0.00 in/hr0.0 mm/hr 0.00 in0.0 mm
04:00 AM 70.0°F21.1°C 61.7°F16.5°C 75% 2.8 mph S4.5 kmh S 4.0 mph6.4 kmh 29.88 in1011.9 mb 0.00 in0.0 mm 0.00 in/hr0.0 mm/hr 0.00 in0.0 mm
03:50 AM 70.2°F21.2°C 61.9°F16.6°C 75% 3.3 mph S5.3 kmh S 4.3 mph6.9 kmh 29.88 in1011.9 mb 0.00 in0.0 mm 0.00 in/hr0.0 mm/hr 0.00 in0.0 mm
03:40 AM 70.2°F21.2°C 61.5°F16.4°C 74% 3.7 mph S6.0 kmh S 4.1 mph6.6 kmh 29.88 in1011.9 mb 0.00 in0.0 mm 0.00 in/hr0.0 mm/hr 0.00 in0.0 mm
03:30 AM 70.3°F21.3°C 61.6°F16.4°C 74% Calm Calm -- 29.88 in1011.9 mb 0.00 in0.0 mm 0.00 in/hr0.0 mm/hr 0.00 in0.0 mm
03:20 AM 70.3°F21.3°C 61.7°F16.5°C 74% Calm Calm -- 29.88 in1011.9 mb 0.00 in0.0 mm 0.00 in/hr0.0 mm/hr 0.00 in0.0 mm
03:10 AM 70.1°F21.2°C 61.4°F16.3°C 74% 2.8 mph S4.5 kmh S 3.5 mph5.6 kmh 29.88 in1011.9 mb 0.00 in0.0 mm 0.00 in/hr0.0 mm/hr 0.00 in0.0 mm
03:00 AM 70.1°F21.2°C 61.8°F16.6°C 75% Calm Calm -- 29.88 in1011.9 mb 0.00 in0.0 mm 0.00 in/hr0.0 mm/hr 0.00 in0.0 mm
02:50 AM 70.5°F21.4°C 61.8°F16.6°C 74% Calm Calm -- 29.88 in1011.9 mb 0.00 in0.0 mm 0.00 in/hr0.0 mm/hr 0.00 in0.0 mm
02:40 AM 70.6°F21.4°C 61.9°F16.6°C 74% 1.4 mph S2.3 kmh S 2.2 mph3.5 kmh 29.88 in1011.9 mb 0.00 in0.0 mm 0.00 in/hr0.0 mm/hr 0.00 in0.0 mm
02:30 AM 70.6°F21.4°C 61.9°F16.6°C 74% 3.0 mph S4.8 kmh S 4.2 mph6.8 kmh 29.88 in1011.9 mb 0.00 in0.0 mm 0.00 in/hr0.0 mm/hr 0.00 in0.0 mm
02:20 AM 70.5°F21.4°C 61.8°F16.6°C 74% 1.3 mph S2.1 kmh S 2.9 mph4.7 kmh 29.88 in1011.9 mb 0.00 in0.0 mm 0.00 in/hr0.0 mm/hr 0.00 in0.0 mm
02:10 AM 70.5°F21.4°C 62.2°F16.8°C 75% 0.7 mph SE1.1 kmh SE 0.8 mph1.3 kmh 29.88 in1011.9 mb 0.00 in0.0 mm 0.00 in/hr0.0 mm/hr 0.00 in0.0 mm
02:00 AM 70.7°F21.5°C 62.8°F17.1°C 76% Calm Calm -- 29.88 in1011.9 mb 0.00 in0.0 mm 0.00 in/hr0.0 mm/hr 0.00 in0.0 mm
01:50 AM 70.7°F21.5°C 62.8°F17.1°C 76% 1.7 mph S2.7 kmh S 2.8 mph4.5 kmh 29.88 in1011.9 mb 0.00 in0.0 mm 0.00 in/hr0.0 mm/hr 0.00 in0.0 mm
01:40 AM 70.9°F21.6°C 62.6°F17.0°C 75% 3.1 mph S5.0 kmh S 3.9 mph6.3 kmh 29.88 in1011.9 mb 0.00 in0.0 mm 0.00 in/hr0.0 mm/hr 0.00 in0.0 mm
01:30 AM 71.3°F21.8°C 63.4°F17.4°C 76% 0.6 mph SSE1.0 kmh SSE 4.4 mph7.1 kmh 29.88 in1011.9 mb 0.00 in0.0 mm 0.00 in/hr0.0 mm/hr 0.00 in0.0 mm
01:20 AM 71.2°F21.8°C 63.2°F17.3°C 76% 1.2 mph S1.9 kmh S 2.5 mph4.0 kmh 29.88 in1011.9 mb 0.00 in0.0 mm 0.00 in/hr0.0 mm/hr 0.00 in0.0 mm
01:10 AM 71.0°F21.7°C 63.1°F17.3°C 76% 0.7 mph SE1.1 kmh SE -- 29.88 in1011.9 mb 0.00 in0.0 mm 0.00 in/hr0.0 mm/hr 0.00 in0.0 mm
01:00 AM 71.2°F21.8°C 63.6°F17.6°C 77% 2.3 mph S3.7 kmh S 3.4 mph5.5 kmh 29.89 in1012.2 mb 0.00 in0.0 mm 0.00 in/hr0.0 mm/hr 0.00 in0.0 mm
12:50 AM 71.4°F21.9°C 63.8°F17.7°C 77% 2.2 mph S3.5 kmh S 3.7 mph6.0 kmh 29.89 in1012.2 mb 0.00 in0.0 mm 0.00 in/hr0.0 mm/hr 0.00 in0.0 mm
12:40 AM 71.6°F22.0°C 64.3°F17.9°C 78% 2.3 mph S3.7 kmh S 4.7 mph7.6 kmh 29.89 in1012.2 mb 0.00 in0.0 mm 0.00 in/hr0.0 mm/hr 0.00 in0.0 mm
12:30 AM 71.5°F21.9°C 64.3°F17.9°C 78% 0.9 mph S1.4 kmh S 2.9 mph4.7 kmh 29.89 in1012.2 mb 0.00 in0.0 mm 0.00 in/hr0.0 mm/hr 0.00 in0.0 mm
12:20 AM 71.6°F22.0°C 64.3°F17.9°C 78% 2.9 mph S4.7 kmh S 3.5 mph5.6 kmh 29.90 in1012.5 mb 0.00 in0.0 mm 0.00 in/hr0.0 mm/hr 0.00 in0.0 mm
12:10 AM 71.7°F22.1°C 64.5°F18.1°C 78% 4.0 mph SSE6.4 kmh SSE 4.5 mph7.2 kmh 29.90 in1012.5 mb 0.00 in0.0 mm 0.00 in/hr0.0 mm/hr 0.00 in0.0 mm
12:00 AM 71.9°F22.2°C 64.3°F17.9°C 77% 2.0 mph SSE3.2 kmh SSE 3.5 mph5.6 kmh 29.90 in1012.5 mb 0.00 in0.0 mm 0.00 in/hr0.0 mm/hr 0.00 in0.0 mm